Main page
METAR-TAF:

METAR-TAF

Airports :

Rajkot Airport

Rajkot, India

latitude: 22-18N, longitude: 070-47E, elevation: 134 m

Current weather observation

The report was made 45 minutes ago, at 13:00 UTC
Wind 3 kt from the East/Northeast
Temperature 30°C
Humidity 59%
Pressure 1011 hPa
Visibility: 6000 m
Scattered clouds at a height of 2000 ft
Few clouds at a height of 3000 ft, Cumulonimbus.
Broken clouds at a height of 8000 ft

METAR: VARK 131300Z 06003KT 6000 SCT020 FEW030CB BKN080 30/21 Q1011

Time: 19:15 (13:45 UTC)

Forecast

The report was made 2 hours and 45 minutes ago, at 11:00 UTC
Forecast valid from 13 at 12 UTC to 13 at 21 UTC
Wind 4 kt from the West/Northwest
Visibility: 6000 m
Scattered clouds at a height of 2500 ft
Scattered clouds at a height of 8000 ft

TAF: VARK 131100Z 1312/1321 29004KT 6000 SCT025 SCT080 CHECK TEXT NEW ENDING ADDED VABBYFYX

Weather observations and forecasts of more than 4000 airports (METAR and TAF reports).

The available stations are represented by yellow and red dots on the map.

Hover mouse over dot to see the name of the station.

Then click to see weather observations and forecasts.

To change the map : click on the green buttons with a black cross to zoom in, on the green button with a dash to zoom out, or on the green arrows for adjacent maps.


METAR-TAF: